< < Back
Terminal Aerodrome Forecast


Current Version              Previous Versions:   1  2  3  4  5  6  7  8  9  

Terminal Aerodrome Forecast

580
FTUS42 KMLB 301304 AAA
TAFDAB
TAF AMD
KDAB 301304Z 3013/3112 15009KT 6SM -RA VCTS SCT020CB BKN040 OVC100
      TEMPO 3013/3015 VRB15G25KT 2SM +TSRA BKN020CB OVC040
     FM301800 12010KT 6SM -RA VCTS BKN030CB OVC100
      TEMPO 3018/3022 3SM TSRA BKN020CB OVC050
     FM310100 18004KT P6SM VCSH SCT020 BKN050 OVC250=

Latest METAR

723
SAUS80 KWBC 302000
MTRDAB
METAR KDAB 301953Z 23007KT 7SM -TSRA FEW008 SCT018CB BKN065 OVC130 25/24
A3000 RMK AO2 SLP159 FRQ LTGICCG NW-N TS NW-N MOV N CB SW-W
MOV N CB DSNT NE-SE NW P0035 T02500239 $


USA.gov is the U.S. government's official web portal to all federal, state and local government web resources and services.